createdAt,value
2023-03-24T00:01:46.489Z,9.65
2023-03-24T00:04:12.874Z,7.60
2023-03-24T00:06:39.288Z,9.13
2023-03-24T00:09:06.776Z,8.13
2023-03-24T00:11:36.227Z,7.13
2023-03-24T00:14:03.960Z,7.13
2023-03-24T00:16:30.769Z,9.00
2023-03-24T00:18:57.716Z,7.03
2023-03-24T00:21:25.418Z,6.05
2023-03-24T00:23:54.762Z,7.32
2023-03-24T00:26:21.584Z,9.25
2023-03-24T00:28:49.005Z,8.05
2023-03-24T00:31:17.212Z,9.40
2023-03-24T00:33:48.029Z,10.10
2023-03-24T00:36:14.422Z,8.05
2023-03-24T00:38:42.129Z,7.15
2023-03-24T00:41:10.685Z,8.45
2023-03-24T00:43:37.409Z,12.63
2023-03-24T00:46:11.664Z,8.98
2023-03-24T00:48:38.450Z,10.98
2023-03-24T00:51:07.961Z,10.40
2023-03-24T00:53:35.373Z,6.88
2023-03-24T00:56:01.771Z,8.25
2023-03-24T00:58:29.750Z,9.95
2023-03-24T01:00:58.274Z,7.85
2023-03-24T01:03:27.377Z,7.13
2023-03-24T01:05:58.230Z,7.55
2023-03-24T01:08:25.528Z,8.13
2023-03-24T01:10:55.173Z,10.48
2023-03-24T01:13:26.469Z,9.07
2023-03-24T01:15:53.716Z,8.15
2023-03-24T01:18:20.789Z,8.77
2023-03-24T01:20:51.506Z,6.70
2023-03-24T01:23:21.376Z,10.18
2023-03-24T01:25:48.908Z,13.23
2023-03-24T01:28:18.676Z,9.30
2023-03-24T01:30:45.737Z,9.25
2023-03-24T01:33:12.305Z,9.93
2023-03-24T01:35:39.417Z,9.00
2023-03-24T01:38:08.026Z,14.45
2023-03-24T01:40:36.311Z,10.25
2023-03-24T01:43:03.847Z,9.52
2023-03-24T01:45:39.360Z,12.52
2023-03-24T01:48:34.134Z,11.10
2023-03-24T01:51:26.721Z,9.63
2023-03-24T01:54:06.294Z,11.25
2023-03-24T01:56:36.556Z,9.35
2023-03-24T01:59:09.608Z,7.72
2023-03-24T02:01:36.098Z,9.48
2023-03-24T02:04:05.798Z,7.43
2023-03-24T02:06:35.227Z,7.85
2023-03-24T02:09:02.286Z,8.77
2023-03-24T02:11:32.422Z,7.35
2023-03-24T02:13:59.240Z,6.45
2023-03-24T02:16:43.942Z,9.25
2023-03-24T02:19:38.685Z,8.80
2023-03-24T02:22:26.373Z,8.35
2023-03-24T02:25:11.730Z,7.20
2023-03-24T02:28:00.124Z,8.02
2023-03-24T02:30:44.544Z,9.23
2023-03-24T02:33:29.732Z,7.57
2023-03-24T02:36:21.433Z,9.35
2023-03-24T02:39:06.353Z,7.82
2023-03-24T02:41:41.313Z,7.93
2023-03-24T02:44:27.798Z,9.15
2023-03-24T02:47:11.466Z,10.98
2023-03-24T02:49:43.940Z,10.00
2023-03-24T02:52:35.202Z,8.20
2023-03-24T02:55:10.288Z,7.90
2023-03-24T02:57:49.332Z,11.48
2023-03-24T03:00:22.586Z,9.20
2023-03-24T03:02:57.854Z,9.27
2023-03-24T03:05:34.076Z,10.15
2023-03-24T03:08:04.882Z,8.95
2023-03-24T03:10:44.583Z,8.80
2023-03-24T03:13:20.793Z,10.45
2023-03-24T03:15:54.347Z,6.95
2023-03-24T03:18:30.801Z,7.78
2023-03-24T03:21:02.515Z,7.68
2023-03-24T03:23:37.269Z,7.70
2023-03-24T03:28:41.206Z,8.10
2023-03-24T03:31:11.581Z,8.77
2023-03-24T03:33:42.408Z,7.78
2023-03-24T03:36:18.506Z,9.45
2023-03-24T03:38:52.134Z,6.95
2023-03-24T03:41:20.281Z,8.38
2023-03-24T03:43:48.752Z,9.80
2023-03-24T03:46:16.503Z,11.55
2023-03-24T03:48:43.809Z,9.20
2023-03-24T03:51:14.203Z,8.35
2023-03-24T03:53:49.889Z,7.55
2023-03-24T03:56:19.297Z,8.77
2023-03-24T03:58:50.428Z,9.07
2023-03-24T04:01:20.345Z,9.13
2023-03-24T04:04:07.393Z,9.65
2023-03-24T04:06:50.289Z,8.48
2023-03-24T04:09:50.404Z,9.25
2023-03-24T04:12:41.801Z,10.07
2023-03-24T04:15:40.089Z,11.43
2023-03-24T04:19:00.284Z,10.57
2023-03-24T04:21:49.077Z,14.15
2023-03-24T04:24:32.673Z,18.00
2023-03-24T04:27:17.484Z,20.38
2023-03-24T04:29:53.016Z,18.80
2023-03-24T04:32:22.566Z,20.50
2023-03-24T04:35:01.121Z,17.70
2023-03-24T04:37:33.685Z,15.35
2023-03-24T04:40:05.965Z,11.35
2023-03-24T04:42:39.867Z,10.20
2023-03-24T04:45:07.918Z,10.93
2023-03-24T04:47:43.427Z,16.75
2023-03-24T04:50:12.714Z,6.07
2023-03-24T04:52:40.563Z,3.92
2023-03-24T04:55:32.722Z,8.27
2023-03-24T04:57:59.068Z,10.40
2023-03-24T05:00:25.831Z,8.98
2023-03-24T05:02:52.544Z,13.55
2023-03-24T05:05:19.054Z,12.77
2023-03-24T05:07:45.370Z,15.23
2023-03-24T05:10:13.298Z,9.60
2023-03-24T05:12:39.686Z,12.02
2023-03-24T05:15:06.858Z,12.48
2023-03-24T05:17:33.602Z,17.55
2023-03-24T05:20:00.362Z,15.10
2023-03-24T05:22:27.047Z,14.10
2023-03-24T05:24:53.729Z,12.18
2023-03-24T05:27:20.076Z,13.52
2023-03-24T05:29:46.394Z,9.85
2023-03-24T05:32:13.981Z,10.30
2023-03-24T05:34:40.561Z,11.20
2023-03-24T05:37:09.544Z,9.00
2023-03-24T05:39:36.632Z,8.68
2023-03-24T05:42:03.071Z,11.18
2023-03-24T05:44:29.421Z,7.72
2023-03-24T05:46:56.127Z,11.95
2023-03-24T05:49:22.467Z,8.20
2023-03-24T05:51:48.806Z,7.75
2023-03-24T05:54:16.256Z,7.30
2023-03-24T05:56:42.830Z,7.75
2023-03-24T05:59:09.296Z,6.00
2023-03-24T06:01:37.178Z,6.75
2023-03-24T06:04:03.571Z,6.10
2023-03-24T06:06:29.936Z,5.97
2023-03-24T06:08:58.736Z,7.18
2023-03-24T06:11:25.233Z,8.93
2023-03-24T06:13:51.547Z,7.10
2023-03-24T06:16:19.287Z,7.03
2023-03-24T06:18:52.987Z,8.60
2023-03-24T06:21:20.855Z,4.93
2023-03-24T06:23:47.624Z,6.68
2023-03-24T06:26:14.966Z,5.40
2023-03-24T06:28:42.569Z,7.97
2023-03-24T06:31:15.203Z,9.13
2023-03-24T06:33:45.531Z,9.40
2023-03-24T06:36:12.803Z,9.65
2023-03-24T06:38:40.626Z,8.98
2023-03-24T06:41:10.219Z,10.07
2023-03-24T06:43:36.532Z,8.25
2023-03-24T06:46:03.494Z,9.20
2023-03-24T06:48:30.306Z,10.60
2023-03-24T06:50:56.604Z,7.38
2023-03-24T06:53:22.929Z,8.48
2023-03-24T06:55:50.651Z,7.70
2023-03-24T06:58:19.153Z,6.57
2023-03-24T07:00:47.006Z,6.53
2023-03-24T07:03:16.305Z,9.88
2023-03-24T07:05:45.085Z,7.10
2023-03-24T07:10:44.670Z,6.65
2023-03-24T07:13:11.488Z,6.47
2023-03-24T07:15:37.850Z,7.07
2023-03-24T07:18:04.784Z,7.28
2023-03-24T07:20:31.831Z,7.55
2023-03-24T07:22:58.627Z,6.85
2023-03-24T07:25:26.018Z,7.45
2023-03-24T07:27:56.267Z,7.05
2023-03-24T07:30:30.015Z,5.78
2023-03-24T07:33:03.147Z,5.63
2023-03-24T07:35:30.010Z,7.68
2023-03-24T07:38:01.086Z,8.50
2023-03-24T07:40:28.973Z,4.68
2023-03-24T07:42:55.538Z,6.60
2023-03-24T07:45:21.891Z,7.78
2023-03-24T07:47:49.027Z,7.65
2023-03-24T07:50:15.445Z,9.32
2023-03-24T07:52:46.751Z,7.18
2023-03-24T07:55:13.708Z,7.75
2023-03-24T07:57:48.143Z,5.50
2023-03-24T08:00:18.379Z,8.23
2023-03-24T08:02:46.732Z,7.60
2023-03-24T08:05:16.499Z,8.50
2023-03-24T08:07:45.058Z,9.93
2023-03-24T08:10:13.771Z,9.13
2023-03-24T08:12:40.994Z,8.30
2023-03-24T08:15:09.619Z,8.07
2023-03-24T08:17:36.669Z,7.30
2023-03-24T08:20:08.389Z,7.05
2023-03-24T08:22:35.554Z,7.00
2023-03-24T08:25:01.926Z,8.77
2023-03-24T08:27:28.250Z,7.32
2023-03-24T08:29:54.963Z,8.57
2023-03-24T08:32:21.329Z,7.75
2023-03-24T08:34:47.713Z,7.25
2023-03-24T08:37:14.430Z,8.40
2023-03-24T08:39:40.845Z,8.98
2023-03-24T08:42:07.196Z,10.43
2023-03-24T08:44:33.900Z,10.48
2023-03-24T08:47:01.085Z,7.75
2023-03-24T08:49:27.726Z,8.52
2023-03-24T08:51:54.586Z,7.00
2023-03-24T08:54:23.450Z,7.70
2023-03-24T08:56:49.859Z,7.25
2023-03-24T08:59:16.653Z,5.63
2023-03-24T09:01:43.173Z,10.20
2023-03-24T09:04:09.708Z,7.72
2023-03-24T09:06:37.121Z,6.03
2023-03-24T09:09:03.517Z,6.15
2023-03-24T09:11:29.872Z,8.95
2023-03-24T09:13:56.766Z,8.98
2023-03-24T09:16:23.353Z,9.57
2023-03-24T09:18:49.725Z,6.60
2023-03-24T09:21:17.527Z,10.55
2023-03-24T09:23:44.147Z,8.23
2023-03-24T09:26:10.828Z,7.82
2023-03-24T09:28:37.445Z,7.03
2023-03-24T09:31:05.934Z,6.43
2023-03-24T09:33:34.610Z,8.18
2023-03-24T09:36:02.474Z,12.52
2023-03-24T09:38:29.792Z,10.30
2023-03-24T09:41:00.817Z,11.25
2023-03-24T09:43:27.415Z,8.00
2023-03-24T09:45:57.027Z,4.88
2023-03-24T09:48:46.122Z,10.52
2023-03-24T09:51:20.709Z,8.68
2023-03-24T09:54:12.626Z,11.05
2023-03-24T09:56:42.005Z,5.53
2023-03-24T09:59:30.357Z,4.95
2023-03-24T10:01:57.879Z,5.40
2023-03-24T10:04:27.110Z,4.22
2023-03-24T10:07:09.531Z,5.75
2023-03-24T10:09:36.572Z,4.82
2023-03-24T10:12:18.639Z,4.28
2023-03-24T10:15:30.877Z,4.40
2023-03-24T10:18:12.213Z,3.88
2023-03-24T10:20:54.566Z,2.63
2023-03-24T10:23:40.579Z,4.60
2023-03-24T10:26:26.334Z,4.57
2023-03-24T10:29:09.295Z,3.53
2023-03-24T10:31:37.501Z,2.45
2023-03-24T10:34:04.078Z,2.83
2023-03-24T10:36:31.425Z,4.57
2023-03-24T10:39:01.884Z,4.82
2023-03-24T10:41:35.349Z,3.58
2023-03-24T10:44:02.176Z,5.18
2023-03-24T10:46:31.352Z,3.20
2023-03-24T10:49:17.166Z,3.72
2023-03-24T10:51:51.950Z,3.80
2023-03-24T10:54:29.987Z,4.05
2023-03-24T10:57:00.272Z,2.80
2023-03-24T10:59:32.188Z,2.78
2023-03-24T11:02:10.590Z,2.70
2023-03-24T11:04:41.303Z,4.53
2023-03-24T11:07:16.251Z,3.88
2023-03-24T11:09:56.497Z,4.97
2023-03-24T11:12:29.072Z,4.05
2023-03-24T11:15:23.295Z,3.63
2023-03-24T11:18:16.673Z,4.80
2023-03-24T11:20:54.535Z,5.07
2023-03-24T11:23:27.943Z,3.40
2023-03-24T11:26:15.413Z,5.72
2023-03-24T11:28:47.017Z,2.75
2023-03-24T11:31:24.612Z,3.22
2023-03-24T11:34:09.214Z,3.88
2023-03-24T11:36:47.567Z,3.15
2023-03-24T11:39:28.989Z,3.90
2023-03-24T11:42:07.550Z,3.00
2023-03-24T11:44:46.063Z,4.47
2023-03-24T11:47:30.461Z,3.90
2023-03-24T11:50:08.987Z,4.25
2023-03-24T11:52:50.675Z,4.30
2023-03-24T11:55:57.182Z,3.45
2023-03-24T11:58:42.912Z,3.00
2023-03-24T12:01:18.320Z,3.05
2023-03-24T12:04:23.556Z,2.00
2023-03-24T12:07:15.886Z,1.70
2023-03-24T12:09:42.649Z,3.22
2023-03-24T12:12:45.530Z,2.60
2023-03-24T12:15:26.539Z,3.42
2023-03-24T12:18:09.460Z,3.08
2023-03-24T12:20:54.359Z,2.63
2023-03-24T12:26:07.776Z,3.35
2023-03-24T12:28:40.421Z,1.65
2023-03-24T12:31:09.962Z,2.20
2023-03-24T12:34:04.012Z,1.88
2023-03-24T12:36:54.516Z,3.13
2023-03-24T12:39:27.939Z,1.83
2023-03-24T12:42:14.455Z,2.53
2023-03-24T12:45:04.821Z,1.75
2023-03-24T12:47:58.828Z,1.65
2023-03-24T12:50:52.371Z,1.20
2023-03-24T12:53:43.161Z,2.35
2023-03-24T12:56:23.169Z,1.85
2023-03-24T12:59:06.526Z,3.00
2023-03-24T13:01:38.301Z,1.27
2023-03-24T13:04:13.568Z,1.90
2023-03-24T13:06:49.896Z,0.77
2023-03-24T13:09:42.053Z,1.83
2023-03-24T13:12:11.160Z,1.33
2023-03-24T13:14:52.983Z,1.40
2023-03-24T13:17:27.874Z,1.38
2023-03-24T13:19:56.582Z,1.20
2023-03-24T13:22:24.882Z,7.15
2023-03-24T13:24:53.660Z,1.30
2023-03-24T13:27:33.300Z,1.23
2023-03-24T13:30:07.405Z,1.48
2023-03-24T13:32:41.693Z,2.17
2023-03-24T13:35:26.923Z,1.00
2023-03-24T13:38:04.277Z,1.52
2023-03-24T13:40:32.559Z,1.20
2023-03-24T13:43:08.077Z,1.92
2023-03-24T13:45:47.679Z,4.00
2023-03-24T13:48:23.470Z,0.63
2023-03-24T13:51:04.347Z,1.23
2023-03-24T13:53:33.030Z,1.27
2023-03-24T13:56:01.184Z,1.33
2023-03-24T13:58:46.276Z,1.33
2023-03-24T14:01:18.048Z,1.77
2023-03-24T14:04:06.501Z,3.08
2023-03-24T14:06:54.630Z,4.72
2023-03-24T14:09:27.472Z,1.67
2023-03-24T14:12:03.261Z,2.05
2023-03-24T14:14:34.247Z,1.10
2023-03-24T14:17:14.778Z,1.73
2023-03-24T14:20:09.460Z,0.73
2023-03-24T14:22:40.729Z,2.58
2023-03-24T14:25:16.235Z,1.08
2023-03-24T14:27:48.096Z,1.23
2023-03-24T14:30:15.474Z,0.85
2023-03-24T14:32:48.675Z,1.20
2023-03-24T14:35:33.726Z,2.38
2023-03-24T14:40:50.724Z,0.93
2023-03-24T14:43:22.376Z,2.33
2023-03-24T14:45:57.735Z,2.10
2023-03-24T14:48:42.385Z,2.05
2023-03-24T14:51:46.591Z,4.03
2023-03-24T14:54:24.183Z,1.42
2023-03-24T14:56:54.072Z,0.70
2023-03-24T14:59:31.082Z,1.50
2023-03-24T15:02:11.442Z,0.80
2023-03-24T15:04:39.824Z,1.33
2023-03-24T15:07:06.390Z,0.50
2023-03-24T15:09:38.597Z,1.35
2023-03-24T15:12:05.442Z,1.63
2023-03-24T15:14:35.785Z,2.55
2023-03-24T15:17:17.842Z,3.78
2023-03-24T15:19:44.645Z,1.30
2023-03-24T15:22:13.447Z,1.92
2023-03-24T15:24:45.154Z,0.65
2023-03-24T15:27:21.444Z,2.25
2023-03-24T15:29:54.878Z,2.08
2023-03-24T15:32:23.688Z,1.75
2023-03-24T15:34:54.065Z,0.80
2023-03-24T15:37:25.241Z,1.58
2023-03-24T15:40:01.792Z,1.13
2023-03-24T15:42:42.197Z,1.75
2023-03-24T15:45:23.818Z,1.15
2023-03-24T15:47:53.906Z,0.98
2023-03-24T15:50:41.251Z,0.75
2023-03-24T15:53:25.381Z,0.63
2023-03-24T15:56:13.975Z,1.77
2023-03-24T15:59:09.577Z,2.40
2023-03-24T16:01:38.417Z,1.13
2023-03-24T16:04:07.592Z,0.77
2023-03-24T16:06:35.830Z,0.93
2023-03-24T16:09:09.354Z,0.88
2023-03-24T16:11:36.029Z,1.70
2023-03-24T16:14:19.256Z,1.45
2023-03-24T16:16:46.037Z,2.25
2023-03-24T16:19:13.057Z,1.10
2023-03-24T16:21:41.276Z,1.20
2023-03-24T16:24:07.678Z,1.88
2023-03-24T16:26:33.994Z,2.08
2023-03-24T16:29:27.152Z,1.05
2023-03-24T16:31:56.372Z,1.48
2023-03-24T16:34:23.924Z,1.30
2023-03-24T16:36:52.789Z,2.20
2023-03-24T16:39:24.627Z,0.77
2023-03-24T16:41:51.438Z,0.95
2023-03-24T16:44:18.237Z,1.23
2023-03-24T16:46:46.876Z,0.75
2023-03-24T16:49:16.689Z,0.65
2023-03-24T16:51:44.472Z,0.88
2023-03-24T16:54:11.236Z,0.40
2023-03-24T16:56:38.110Z,1.40
2023-03-24T16:59:06.129Z,0.80
2023-03-24T17:01:38.909Z,1.33
2023-03-24T17:04:16.187Z,0.60
2023-03-24T17:06:45.037Z,0.70
2023-03-24T17:09:12.515Z,0.60
2023-03-24T17:11:41.925Z,1.50
2023-03-24T17:14:12.074Z,0.55
2023-03-24T17:16:43.844Z,1.00
2023-03-24T17:19:19.517Z,0.50
2023-03-24T17:22:02.188Z,3.58
2023-03-24T17:24:35.432Z,0.57
2023-03-24T17:27:03.415Z,1.17
2023-03-24T17:29:29.752Z,2.25
2023-03-24T17:31:56.053Z,0.50
2023-03-24T17:34:22.835Z,0.93
2023-03-24T17:36:50.549Z,1.05
2023-03-24T17:39:18.015Z,1.00
2023-03-24T17:41:45.075Z,1.17
2023-03-24T17:44:11.387Z,3.50
2023-03-24T17:46:37.980Z,0.88
2023-03-24T17:49:05.241Z,1.30
2023-03-24T17:51:31.627Z,0.98
2023-03-24T17:53:58.292Z,3.70
2023-03-24T17:56:24.949Z,1.60
2023-03-24T17:58:54.541Z,0.73
2023-03-24T18:01:21.195Z,3.03
2023-03-24T18:03:49.963Z,3.03
2023-03-24T18:06:16.785Z,0.98
2023-03-24T18:08:43.217Z,0.70
2023-03-24T18:11:12.835Z,0.88
2023-03-24T18:13:39.215Z,2.88
2023-03-24T18:16:20.601Z,2.33
2023-03-24T18:18:50.547Z,1.33
2023-03-24T18:21:17.818Z,1.30
2023-03-24T18:23:46.143Z,2.53
2023-03-24T18:26:12.782Z,1.33
2023-03-24T18:28:39.181Z,1.00
2023-03-24T18:31:09.899Z,2.72
2023-03-24T18:33:36.654Z,1.55
2023-03-24T18:36:04.126Z,1.60
2023-03-24T18:38:30.471Z,1.88
2023-03-24T18:41:05.106Z,1.00
2023-03-24T18:43:34.267Z,1.20
2023-03-24T18:46:00.781Z,1.83
2023-03-24T18:48:27.610Z,3.03
2023-03-24T18:50:53.998Z,3.72
2023-03-24T18:53:21.266Z,2.65
2023-03-24T18:55:50.578Z,1.98
2023-03-24T18:58:18.021Z,5.35
2023-03-24T19:00:53.509Z,1.63
2023-03-24T19:03:22.139Z,2.70
2023-03-24T19:05:49.630Z,2.15
2023-03-24T19:08:17.314Z,1.50
2023-03-24T19:10:43.760Z,3.47
2023-03-24T19:13:15.494Z,2.13
2023-03-24T19:15:45.532Z,1.60
2023-03-24T19:18:12.638Z,1.35
2023-03-24T19:20:40.808Z,1.45
2023-03-24T19:23:07.283Z,1.35
2023-03-24T19:25:33.814Z,2.92
2023-03-24T19:28:00.676Z,3.45
2023-03-24T19:30:27.385Z,1.67
2023-03-24T19:32:53.753Z,2.47
2023-03-24T19:35:20.544Z,2.65
2023-03-24T19:37:47.163Z,1.45
2023-03-24T19:40:15.390Z,2.10
2023-03-24T19:42:45.227Z,1.40
2023-03-24T19:45:13.455Z,3.42
2023-03-24T19:47:39.864Z,1.52
2023-03-24T19:50:07.986Z,3.45
2023-03-24T19:52:35.011Z,3.25
2023-03-24T19:55:01.715Z,2.95
2023-03-24T19:57:30.813Z,2.42
2023-03-24T19:59:57.455Z,1.67
2023-03-24T20:02:24.669Z,1.38
2023-03-24T20:04:55.385Z,1.70
2023-03-24T20:07:23.175Z,0.70
2023-03-24T20:09:50.249Z,1.17
2023-03-24T20:12:16.964Z,1.20
2023-03-24T20:14:43.674Z,0.85
2023-03-24T20:17:17.682Z,1.88
2023-03-24T20:19:44.514Z,1.77
2023-03-24T20:22:11.337Z,1.75
2023-03-24T20:24:38.965Z,3.03
2023-03-24T20:27:07.111Z,1.38
2023-03-24T20:29:33.907Z,2.53
2023-03-24T20:32:00.704Z,2.60
2023-03-24T20:34:27.101Z,1.48
2023-03-24T20:36:53.850Z,1.58
2023-03-24T20:39:20.417Z,1.65
2023-03-24T20:41:46.728Z,0.65
2023-03-24T20:44:13.434Z,1.70
2023-03-24T20:46:39.915Z,1.35
2023-03-24T20:49:07.637Z,1.35
2023-03-24T20:51:34.400Z,3.15
2023-03-24T20:54:00.812Z,1.55
2023-03-24T20:56:27.543Z,5.28
2023-03-24T20:58:53.889Z,1.42
2023-03-24T21:01:21.843Z,2.22
2023-03-24T21:03:50.686Z,1.38
2023-03-24T21:06:19.915Z,2.25
2023-03-24T21:08:48.340Z,1.52
2023-03-24T21:11:14.777Z,2.60
2023-03-24T21:13:41.432Z,2.40
2023-03-24T21:16:09.328Z,2.83
2023-03-24T21:18:37.082Z,1.65
2023-03-24T21:21:05.183Z,0.90
2023-03-24T21:23:34.191Z,2.67
2023-03-24T21:26:03.328Z,2.13
2023-03-24T21:28:31.026Z,3.45
2023-03-24T21:30:58.835Z,3.65
2023-03-24T21:33:25.404Z,1.08
2023-03-24T21:35:55.157Z,1.95
2023-03-24T21:38:21.591Z,1.48
2023-03-24T21:40:48.156Z,0.90
2023-03-24T21:43:15.174Z,2.20
2023-03-24T21:45:46.228Z,1.85
2023-03-24T21:48:14.019Z,1.40
2023-03-24T21:50:42.992Z,2.15
2023-03-24T21:53:14.949Z,1.05
2023-03-24T21:55:49.665Z,2.97
2023-03-24T21:58:16.213Z,1.70
2023-03-24T22:00:45.176Z,1.60
2023-03-24T22:03:12.568Z,2.30
2023-03-24T22:05:39.975Z,6.03
2023-03-24T22:08:07.017Z,2.00
2023-03-24T22:10:35.417Z,1.98
2023-03-24T22:13:04.276Z,1.75
2023-03-24T22:15:33.327Z,2.30
2023-03-24T22:18:00.756Z,1.38
2023-03-24T22:20:32.285Z,1.17
2023-03-24T22:23:03.088Z,1.77
2023-03-24T22:25:29.690Z,3.60
2023-03-24T22:27:56.549Z,2.25
2023-03-24T22:30:23.179Z,2.05
2023-03-24T22:32:50.125Z,1.88
2023-03-24T22:35:16.713Z,3.42
2023-03-24T22:37:43.090Z,1.85
2023-03-24T22:40:10.309Z,4.10
2023-03-24T22:42:36.801Z,4.57
2023-03-24T22:45:03.191Z,3.30
2023-03-24T22:47:30.153Z,3.25
2023-03-24T22:49:56.497Z,1.67
2023-03-24T22:52:22.913Z,3.20
2023-03-24T22:54:49.626Z,1.15
2023-03-24T22:57:17.531Z,2.70
2023-03-24T22:59:44.204Z,2.70
2023-03-24T23:02:10.902Z,2.63
2023-03-24T23:04:39.536Z,1.27
2023-03-24T23:07:06.916Z,2.47
2023-03-24T23:09:34.372Z,2.08
2023-03-24T23:12:00.679Z,1.50
2023-03-24T23:14:27.627Z,2.55
2023-03-24T23:16:56.857Z,0.45
2023-03-24T23:19:23.292Z,2.90
2023-03-24T23:21:49.796Z,2.63
2023-03-24T23:24:16.559Z,3.13
2023-03-24T23:26:42.876Z,2.83
2023-03-24T23:29:09.747Z,3.55
2023-03-24T23:31:36.813Z,5.78
2023-03-24T23:34:07.275Z,1.42
2023-03-24T23:36:34.120Z,5.75
2023-03-24T23:39:00.959Z,1.90
2023-03-24T23:41:27.366Z,3.08
2023-03-24T23:43:54.242Z,2.20
2023-03-24T23:46:22.246Z,1.92
2023-03-24T23:48:48.654Z,3.80
2023-03-24T23:51:15.930Z,3.40
2023-03-24T23:53:42.396Z,2.45
2023-03-24T23:56:10.950Z,4.95
2023-03-24T23:58:39.828Z,3.88
